Terminal Aerodrome Forecast
Issued by NWS

Home | Current Version | Previous Version | Text Only | Print | Product List | Glossary On
Versions: 1 2 3 4 5 6 7 8 9 10 11 12 13 14
000
FTUS43 KIND 251125
TAFBMG
TAF
KBMG 251125Z 2512/2612 16009KT P6SM BKN200 WS020/19040KT
     FM251300 16011KT P6SM BKN150
     FM251800 18013G24KT P6SM VCSH OVC080
     FM252200 17010G18KT P6SM -SHRA VCTS OVC070CB
     FM260300 14007KT 4SM -SHRA OVC040
     FM260600 16007KT 2SM -SHRA OVC015
     FM261000 16008KT 3SM -SHRA OVC015
      AMD LTD TO CLD VIS AND WIND TIL 251300=

USA.gov is the U.S. government's official web portal to all federal, state and local government web resources and services.